createdAt,value
2018-01-02T00:00:26.124Z,96.40
2018-01-02T00:02:53.747Z,96.20
2018-01-02T00:05:22.270Z,96.20
2018-01-02T00:07:49.943Z,96.30
2018-01-02T00:10:17.569Z,96.10
2018-01-02T00:12:45.252Z,96.00
2018-01-02T00:15:12.886Z,95.80
2018-01-02T00:17:40.506Z,95.30
2018-01-02T00:20:08.195Z,94.40
2018-01-02T00:22:35.819Z,94.90
2018-01-02T00:25:03.447Z,95.80
2018-01-02T00:27:31.147Z,96.10
2018-01-02T00:29:58.774Z,96.10
2018-01-02T00:32:26.417Z,96.20
2018-01-02T00:37:33.195Z,96.60
2018-01-02T00:40:00.903Z,96.10
2018-01-02T00:42:28.533Z,95.40
2018-01-02T00:44:56.162Z,95.00
2018-01-02T00:47:23.844Z,94.70
2018-01-02T00:49:51.466Z,94.90
2018-01-02T00:52:19.097Z,95.10
2018-01-02T00:54:46.778Z,95.30
2018-01-02T00:57:15.229Z,95.10
2018-01-02T00:59:43.467Z,95.10
2018-01-02T01:04:38.699Z,94.60
2018-01-02T01:07:06.323Z,94.20
2018-01-02T01:09:34.011Z,95.00
2018-01-02T01:12:01.646Z,94.50
2018-01-02T01:14:29.268Z,95.60
2018-01-02T01:16:57.085Z,97.00
2018-01-02T01:19:24.719Z,96.40
2018-01-02T01:21:52.342Z,96.10
2018-01-02T01:24:20.043Z,96.10
2018-01-02T01:26:47.674Z,95.90
2018-01-02T01:29:15.303Z,95.80
2018-01-02T01:34:11.563Z,95.30
2018-01-02T01:36:40.014Z,94.80
2018-01-02T01:39:07.719Z,94.60
2018-01-02T01:41:35.356Z,94.10
2018-01-02T01:48:59.058Z,95.80
2018-01-02T01:51:26.682Z,95.80
2018-01-02T01:53:54.387Z,95.60
2018-01-02T01:59:01.163Z,95.30
2018-01-02T02:01:28.804Z,95.70
2018-01-02T02:03:56.434Z,95.80
2018-01-02T02:06:24.127Z,95.30
2018-01-02T02:08:51.748Z,94.80
2018-01-02T02:11:19.380Z,95.00
2018-01-02T02:13:47.994Z,94.60
2018-01-02T02:16:15.628Z,94.30
2018-01-02T02:18:43.254Z,94.10
2018-01-02T02:21:10.932Z,94.30
2018-01-02T02:26:07.007Z,94.50
2018-01-02T02:28:34.706Z,93.60
2018-01-02T02:31:02.331Z,93.90
2018-01-02T02:33:30.558Z,94.20
2018-01-02T02:35:58.239Z,94.30
2018-01-02T02:38:25.865Z,93.90
2018-01-02T02:41:05.383Z,93.60
2018-01-02T02:43:33.016Z,93.90
2018-01-02T02:46:00.652Z,93.70
2018-01-02T02:48:28.337Z,92.90
2018-01-02T02:50:55.973Z,93.60
2018-01-02T02:53:23.601Z,94.40
2018-01-02T02:55:51.295Z,94.00
2018-01-02T02:58:19.817Z,93.90
2018-01-02T03:00:48.330Z,93.80
2018-01-02T03:03:16.003Z,94.30
2018-01-02T03:05:43.622Z,93.60
2018-01-02T03:08:11.254Z,94.50
2018-01-02T03:10:38.962Z,95.00
2018-01-02T03:13:06.590Z,94.80
2018-01-02T03:15:34.930Z,95.30
2018-01-02T03:18:02.609Z,95.90
2018-01-02T03:23:09.378Z,95.70
2018-01-02T03:25:37.008Z,96.30
2018-01-02T03:28:04.630Z,96.20
2018-01-02T03:30:32.308Z,95.30
2018-01-02T03:32:59.935Z,95.40
2018-01-02T03:35:27.565Z,95.80
2018-01-02T03:37:55.255Z,96.00
2018-01-02T03:40:22.885Z,95.90
2018-01-02T03:42:50.509Z,95.30
2018-01-02T03:45:19.031Z,94.60
2018-01-02T03:47:46.728Z,94.70
2018-01-02T03:50:14.289Z,94.90
2018-01-02T03:52:41.995Z,95.10
2018-01-02T03:55:10.564Z,94.20
2018-01-02T03:57:38.180Z,95.30
2018-01-02T04:00:05.866Z,95.90
2018-01-02T04:02:33.491Z,95.70
2018-01-02T04:05:01.111Z,95.20
2018-01-02T04:07:28.802Z,95.20
2018-01-02T04:09:56.431Z,95.10
2018-01-02T04:12:25.009Z,95.00
2018-01-02T04:14:52.709Z,95.40
2018-01-02T04:17:21.088Z,95.00
2018-01-02T04:19:48.718Z,95.60
2018-01-02T04:22:16.439Z,95.70
2018-01-02T04:24:44.019Z,96.00
2018-01-02T04:27:11.642Z,96.50
2018-01-02T04:29:39.348Z,96.90
2018-01-02T04:32:07.801Z,97.00
2018-01-02T04:34:35.428Z,97.30
2018-01-02T04:37:03.111Z,97.20
2018-01-02T04:39:30.743Z,97.10
2018-01-02T04:44:37.537Z,96.70
2018-01-02T04:47:05.161Z,97.30
2018-01-02T04:49:33.718Z,96.60
2018-01-02T04:52:01.395Z,96.40
2018-01-02T04:54:29.024Z,97.10
2018-01-02T04:56:56.654Z,96.70
2018-01-02T04:59:24.336Z,96.50
2018-01-02T05:01:51.962Z,96.30
2018-01-02T05:04:19.583Z,95.50
2018-01-02T05:06:47.289Z,95.30
2018-01-02T05:11:42.555Z,95.10
2018-01-02T05:14:10.232Z,94.60
2018-01-02T05:16:37.855Z,94.90
2018-01-02T05:19:05.486Z,94.50
2018-01-02T05:21:34.127Z,94.50
2018-01-02T05:24:01.751Z,94.60
2018-01-02T05:26:29.384Z,94.80
2018-01-02T05:31:24.700Z,94.40
2018-01-02T05:33:52.325Z,94.90
2018-01-02T05:36:20.031Z,94.90
2018-01-02T05:38:47.659Z,94.60
2018-01-02T05:41:15.283Z,94.30
2018-01-02T05:43:43.038Z,94.20
2018-01-02T05:46:10.658Z,94.20
2018-01-02T05:48:39.119Z,94.10
2018-01-02T05:51:06.826Z,94.30
2018-01-02T05:53:34.455Z,94.10
2018-01-02T05:56:02.088Z,94.90
2018-01-02T05:58:29.829Z,95.00
2018-01-02T06:00:57.456Z,95.00
2018-01-02T06:08:33.870Z,94.40
2018-01-02T06:11:01.553Z,94.70
2018-01-02T06:13:29.189Z,94.80
2018-01-02T06:18:24.509Z,93.40
2018-01-02T06:20:52.131Z,93.70
2018-01-02T06:23:19.750Z,94.00
2018-01-02T06:25:47.447Z,95.30
2018-01-02T06:28:15.080Z,95.60
2018-01-02T06:30:42.704Z,95.70
2018-01-02T06:33:10.407Z,96.00
2018-01-02T06:35:38.033Z,95.20
2018-01-02T06:38:05.671Z,95.10
2018-01-02T06:40:34.291Z,95.10
2018-01-02T06:43:01.919Z,94.60
2018-01-02T06:45:29.538Z,94.50
2018-01-02T06:47:58.128Z,94.50
2018-01-02T06:50:25.751Z,94.80
2018-01-02T06:52:53.377Z,95.10
2018-01-02T06:55:21.061Z,95.60
2018-01-02T06:57:48.694Z,94.60
2018-01-02T07:00:16.322Z,94.80
2018-01-02T07:02:44.037Z,94.50
2018-01-02T07:05:11.659Z,94.10
2018-01-02T07:07:39.291Z,94.50
2018-01-02T07:10:07.926Z,95.10
2018-01-02T07:12:35.544Z,95.10
2018-01-02T07:15:03.187Z,95.60
2018-01-02T07:17:30.899Z,95.90
2018-01-02T07:19:58.533Z,95.90
2018-01-02T07:22:26.163Z,95.30
2018-01-02T07:24:53.934Z,95.30
2018-01-02T07:30:00.941Z,94.60
2018-01-02T07:32:28.557Z,95.50
2018-01-02T07:34:56.187Z,95.90
2018-01-02T07:37:23.906Z,95.30
2018-01-02T07:39:51.533Z,95.00
2018-01-02T07:42:19.162Z,94.90
2018-01-02T07:44:46.865Z,95.40
2018-01-02T07:47:14.491Z,94.80
2018-01-02T07:49:42.123Z,94.90
2018-01-02T07:52:09.806Z,95.30
2018-01-02T07:54:37.432Z,95.70
2018-01-02T07:57:05.063Z,95.70
2018-01-02T07:59:32.742Z,96.40
2018-01-02T08:02:00.490Z,96.60
2018-01-02T08:04:27.997Z,97.00
2018-01-02T08:06:55.704Z,97.40
2018-01-02T08:09:23.331Z,97.50
2018-01-02T08:11:50.971Z,97.40
2018-01-02T08:14:18.659Z,97.40
2018-01-02T08:16:46.282Z,97.40
2018-01-02T08:19:13.913Z,96.90
2018-01-02T08:21:41.619Z,96.30
2018-01-02T08:24:09.242Z,96.30
2018-01-02T08:26:36.882Z,95.90
2018-01-02T08:29:04.579Z,95.50
2018-01-02T08:31:32.267Z,95.80
2018-01-02T08:36:27.535Z,95.70
2018-01-02T08:38:55.162Z,95.40
2018-01-02T08:41:22.815Z,95.40
2018-01-02T08:43:50.501Z,96.10
2018-01-02T08:46:18.123Z,97.10
2018-01-02T08:48:45.750Z,96.10
2018-01-02T08:51:13.459Z,94.80
2018-01-02T08:56:20.248Z,94.70
2018-01-02T08:58:47.872Z,94.50
2018-01-02T09:01:15.511Z,94.50
2018-01-02T09:03:43.207Z,94.50
2018-01-02T09:06:10.826Z,94.00
2018-01-02T09:08:38.453Z,87.80
2018-01-02T09:11:06.128Z,91.00
2018-01-02T09:13:39.353Z,90.30
2018-01-02T09:16:07.041Z,89.10
2018-01-02T09:18:34.668Z,91.20
2018-01-02T09:21:02.287Z,91.20
2018-01-02T09:23:29.978Z,91.10
2018-01-02T09:25:57.605Z,90.00
2018-01-02T09:28:25.235Z,91.00
2018-01-02T09:30:53.764Z,91.70
2018-01-02T09:33:21.386Z,90.70
2018-01-02T09:35:49.041Z,89.90
2018-01-02T09:38:16.734Z,90.50
2018-01-02T09:40:44.356Z,91.00
2018-01-02T09:43:11.965Z,91.50
2018-01-02T09:45:39.644Z,92.80
2018-01-02T09:48:07.258Z,92.70
2018-01-02T09:50:35.711Z,93.10
2018-01-02T09:53:03.398Z,93.10
2018-01-02T09:55:31.019Z,93.30
2018-01-02T09:57:58.643Z,95.00
2018-01-02T10:00:26.318Z,94.90
2018-01-02T10:02:53.940Z,94.40
2018-01-02T10:05:21.553Z,94.10
2018-01-02T10:07:49.236Z,94.30
2018-01-02T10:10:16.864Z,94.30
2018-01-02T10:12:44.480Z,94.60
2018-01-02T10:15:12.177Z,94.00
2018-01-02T10:17:39.811Z,94.00
2018-01-02T10:22:48.588Z,93.40
2018-01-02T10:25:16.215Z,93.50
2018-01-02T10:27:43.840Z,92.70
2018-01-02T10:30:11.509Z,91.70
2018-01-02T10:32:39.130Z,89.90
2018-01-02T10:35:06.752Z,90.70
2018-01-02T10:37:34.444Z,92.30
2018-01-02T10:40:02.079Z,88.00
2018-01-02T10:42:30.665Z,87.10
2018-01-02T10:47:25.956Z,82.90
2018-01-02T10:49:53.581Z,84.00
2018-01-02T10:52:21.280Z,80.10
2018-01-02T10:54:48.900Z,85.50
2018-01-02T10:57:16.519Z,80.90
2018-01-02T10:59:44.214Z,78.80
2018-01-02T11:02:11.853Z,79.20
2018-01-02T11:07:07.160Z,78.60
2018-01-02T11:09:34.776Z,78.90
2018-01-02T11:12:03.227Z,79.40
2018-01-02T11:17:11.522Z,72.10
2018-01-02T11:19:39.211Z,74.10
2018-01-02T11:22:06.808Z,72.60
2018-01-02T11:24:34.440Z,73.40
2018-01-02T11:27:02.134Z,73.30
2018-01-02T11:29:29.768Z,74.90
2018-01-02T11:31:57.377Z,75.10
2018-01-02T11:34:25.061Z,76.60
2018-01-02T11:39:20.299Z,76.40
2018-01-02T11:41:48.827Z,73.50
2018-01-02T11:44:16.454Z,73.00
2018-01-02T11:46:44.097Z,78.00
2018-01-02T11:49:11.738Z,76.50
2018-01-02T11:51:39.353Z,73.80
2018-01-02T11:54:06.972Z,75.70
2018-01-02T11:56:35.604Z,77.40
2018-01-02T11:59:03.223Z,76.10
2018-01-02T12:01:30.844Z,76.10
2018-01-02T12:03:58.523Z,75.70
2018-01-02T12:08:53.771Z,74.50
2018-01-02T12:11:21.480Z,77.70
2018-01-02T12:13:49.905Z,78.60
2018-01-02T12:16:17.526Z,80.10
2018-01-02T12:18:45.203Z,77.70
2018-01-02T12:21:12.826Z,79.10
2018-01-02T12:23:40.447Z,76.70
2018-01-02T12:26:08.181Z,76.40
2018-01-02T12:28:35.804Z,78.80
2018-01-02T12:31:04.515Z,78.80
2018-01-02T12:35:59.839Z,73.10
2018-01-02T12:38:27.459Z,74.00
2018-01-02T12:43:34.219Z,75.20
2018-01-02T12:46:01.919Z,77.50
2018-01-02T12:48:29.540Z,74.10
2018-01-02T12:50:57.992Z,69.90
2018-01-02T12:55:54.127Z,69.70
2018-01-02T12:58:21.723Z,70.80
2018-01-02T13:00:50.915Z,70.30
2018-01-02T13:03:17.050Z,71.90
2018-01-02T13:05:44.667Z,73.60
2018-01-02T13:08:12.340Z,71.90
2018-01-02T13:13:07.578Z,71.40
2018-01-02T13:15:35.275Z,72.30
2018-01-02T13:18:03.737Z,72.20
2018-01-02T13:20:31.381Z,72.10
2018-01-02T13:22:59.062Z,73.30
2018-01-02T13:25:26.671Z,75.50
2018-01-02T13:30:21.962Z,76.50
2018-01-02T13:32:49.581Z,77.40
2018-01-02T13:35:17.207Z,79.20
2018-01-02T13:40:17.312Z,79.00
2018-01-02T13:42:45.016Z,78.80
2018-01-02T13:45:12.633Z,79.70
2018-01-02T13:47:40.256Z,80.30
2018-01-02T13:50:07.937Z,79.80
2018-01-02T13:52:35.553Z,81.20
2018-01-02T13:55:03.179Z,81.70
2018-01-02T13:57:31.182Z,83.90
2018-01-02T13:59:58.794Z,83.80
2018-01-02T14:02:26.408Z,83.40
2018-01-02T14:04:55.039Z,82.80
2018-01-02T14:10:01.852Z,80.10
2018-01-02T14:12:29.470Z,77.40
2018-01-02T14:17:24.770Z,76.40
2018-01-02T14:19:53.340Z,77.60
2018-01-02T14:22:20.960Z,78.80
2018-01-02T14:24:48.638Z,76.70
2018-01-02T14:27:16.254Z,75.70
2018-01-02T14:29:43.879Z,75.50
2018-01-02T14:32:11.554Z,76.40
2018-01-02T14:34:39.172Z,75.60
2018-01-02T14:37:06.799Z,76.60
2018-01-02T14:39:34.492Z,79.00
2018-01-02T14:42:03.015Z,79.20
2018-01-02T14:44:30.642Z,78.10
2018-01-02T14:46:59.283Z,77.50
2018-01-02T14:49:26.898Z,79.10
2018-01-02T14:54:22.215Z,81.90
2018-01-02T14:56:49.827Z,82.30
2018-01-02T14:59:18.400Z,82.00
2018-01-02T15:01:46.073Z,84.20
2018-01-02T15:04:13.702Z,81.30
2018-01-02T15:06:41.314Z,80.90
2018-01-02T15:09:09.014Z,81.70
2018-01-02T15:14:15.253Z,83.30
2018-01-02T15:16:42.879Z,82.50
2018-01-02T15:19:10.512Z,84.00
2018-01-02T15:21:38.210Z,83.00
2018-01-02T15:24:05.829Z,82.90
2018-01-02T15:26:33.444Z,85.20
2018-01-02T15:29:01.125Z,84.60
2018-01-02T15:31:28.751Z,84.30
2018-01-02T15:33:57.307Z,85.30
2018-01-02T15:36:24.981Z,85.30
2018-01-02T15:38:52.613Z,84.40
2018-01-02T15:41:20.243Z,85.20
2018-01-02T15:43:47.960Z,85.40
2018-01-02T15:46:15.572Z,85.60
2018-01-02T15:51:10.894Z,86.30
2018-01-02T15:53:38.515Z,86.10
2018-01-02T15:58:45.022Z,86.00
2018-01-02T16:01:12.641Z,86.10
2018-01-02T16:03:40.281Z,83.80
2018-01-02T16:06:07.983Z,83.60
2018-01-02T16:08:35.605Z,84.30
2018-01-02T16:11:03.227Z,83.70
2018-01-02T16:13:30.903Z,83.80
2018-01-02T16:15:58.526Z,84.40
2018-01-02T16:18:26.135Z,85.30
2018-01-02T16:20:53.807Z,84.50
2018-01-02T16:23:21.421Z,84.40
2018-01-02T16:25:49.042Z,86.10
2018-01-02T16:28:16.741Z,85.70
2018-01-02T16:30:44.374Z,85.20
2018-01-02T16:33:11.985Z,83.10
2018-01-02T16:38:07.335Z,82.90
2018-01-02T16:40:34.963Z,84.20
2018-01-02T16:45:30.297Z,83.60
2018-01-02T16:47:57.915Z,82.00
2018-01-02T16:50:25.595Z,82.20
2018-01-02T16:52:53.675Z,83.20
2018-01-02T16:55:21.304Z,85.10
2018-01-02T16:57:49.008Z,84.70
2018-01-02T17:00:16.624Z,84.50
2018-01-02T17:02:44.246Z,85.20
2018-01-02T17:05:11.925Z,85.40
2018-01-02T17:07:39.555Z,84.60
2018-01-02T17:10:07.179Z,84.40
2018-01-02T17:12:34.866Z,83.70
2018-01-02T17:17:41.672Z,84.50
2018-01-02T17:20:09.287Z,85.30
2018-01-02T17:22:36.911Z,85.00
2018-01-02T17:25:05.404Z,83.80
2018-01-02T17:27:33.026Z,84.60
2018-01-02T17:30:00.670Z,82.80
2018-01-02T17:34:56.849Z,83.30
2018-01-02T17:37:24.474Z,84.30
2018-01-02T17:39:52.151Z,83.80
2018-01-02T17:42:20.631Z,84.70
2018-01-02T17:44:48.256Z,86.40
2018-01-02T17:47:15.975Z,84.60
2018-01-02T17:49:44.530Z,87.30
2018-01-02T17:52:12.156Z,88.20
2018-01-02T17:54:39.837Z,87.20
2018-01-02T17:59:35.078Z,86.60
2018-01-02T18:02:06.871Z,86.60
2018-01-02T18:04:36.482Z,86.60
2018-01-02T18:07:04.193Z,86.00
2018-01-02T18:09:31.816Z,85.90
2018-01-02T18:11:59.445Z,85.70
2018-01-02T18:14:27.131Z,84.50
2018-01-02T18:16:54.757Z,84.40
2018-01-02T18:19:22.382Z,84.40
2018-01-02T18:24:17.699Z,85.00
2018-01-02T18:26:45.329Z,84.30
2018-01-02T18:29:13.063Z,84.50
2018-01-02T18:31:40.663Z,86.80
2018-01-02T18:34:08.279Z,87.70
2018-01-02T18:36:35.965Z,89.00
2018-01-02T18:41:42.737Z,88.10
2018-01-02T18:44:10.354Z,85.90
2018-01-02T18:46:37.976Z,86.20
2018-01-02T18:49:06.632Z,87.40
2018-01-02T18:51:34.274Z,84.90
2018-01-02T18:54:01.893Z,85.80
2018-01-02T18:56:29.576Z,86.70
2018-01-02T19:01:24.811Z,85.60
2018-01-02T19:03:53.454Z,86.20
2018-01-02T19:06:21.550Z,85.20
2018-01-02T19:08:49.155Z,84.90
2018-01-02T19:11:16.836Z,86.80
2018-01-02T19:13:44.459Z,85.50
2018-01-02T19:16:12.104Z,87.30
2018-01-02T19:18:40.759Z,86.70
2018-01-02T19:21:08.397Z,85.60
2018-01-02T19:23:36.849Z,88.10
2018-01-02T19:26:04.553Z,87.10
2018-01-02T19:28:32.979Z,86.00
2018-01-02T19:31:00.604Z,86.50
2018-01-02T19:33:28.286Z,86.60
2018-01-02T19:35:55.912Z,86.50
2018-01-02T19:38:23.537Z,88.30
2018-01-02T19:40:51.231Z,86.30
2018-01-02T19:43:19.699Z,87.90
2018-01-02T19:45:47.342Z,87.40
2018-01-02T19:48:15.020Z,86.40
2018-01-02T19:50:42.675Z,87.00
2018-01-02T19:53:10.449Z,90.80
2018-01-02T19:55:38.119Z,86.10
2018-01-02T19:58:06.666Z,85.40
2018-01-02T20:00:34.300Z,87.00
2018-01-02T20:03:02.008Z,88.90
2018-01-02T20:08:10.613Z,87.80
2018-01-02T20:10:38.241Z,87.10
2018-01-02T20:13:06.699Z,88.20
2018-01-02T20:15:34.408Z,87.50
2018-01-02T20:18:02.040Z,88.00
2018-01-02T20:20:30.635Z,88.60
2018-01-02T20:22:58.312Z,89.30
2018-01-02T20:25:25.936Z,88.30
2018-01-02T20:30:21.264Z,88.10
2018-01-02T20:32:49.647Z,88.10
2018-01-02T20:35:17.386Z,88.80
2018-01-02T20:37:45.090Z,90.40
2018-01-02T20:40:12.727Z,88.60
2018-01-02T20:42:40.355Z,87.40
2018-01-02T20:45:08.088Z,87.70
2018-01-02T20:47:35.708Z,87.00
2018-01-02T20:50:03.334Z,86.30
2018-01-02T20:52:31.039Z,85.60
2018-01-02T20:54:58.659Z,82.50
2018-01-02T20:57:27.116Z,84.90
2018-01-02T20:59:54.824Z,79.90
2018-01-02T21:02:22.472Z,80.00
2018-01-02T21:04:50.095Z,79.60
2018-01-02T21:07:17.812Z,79.60
2018-01-02T21:09:45.449Z,76.50
2018-01-02T21:12:13.082Z,73.90
2018-01-02T21:14:40.763Z,74.10
2018-01-02T21:17:08.408Z,72.80
2018-01-02T21:19:36.032Z,73.20
2018-01-02T21:22:04.472Z,72.70
2018-01-02T21:24:32.095Z,70.70
2018-01-02T21:27:00.666Z,75.40
2018-01-02T21:29:28.379Z,73.30
2018-01-02T21:37:02.796Z,70.50
2018-01-02T21:39:30.443Z,70.80
2018-01-02T21:41:58.062Z,70.60
2018-01-02T21:44:25.776Z,73.10
2018-01-02T21:46:53.390Z,72.20
2018-01-02T21:51:53.230Z,72.90
2018-01-02T21:54:20.855Z,72.60
2018-01-02T21:56:48.540Z,72.10
2018-01-02T22:01:54.941Z,78.60
2018-01-02T22:04:22.649Z,80.80
2018-01-02T22:06:50.274Z,81.10
2018-01-02T22:09:17.910Z,81.10
2018-01-02T22:11:46.287Z,81.80
2018-01-02T22:16:41.414Z,79.00
2018-01-02T22:19:09.118Z,80.50
2018-01-02T22:21:36.757Z,81.20
2018-01-02T22:26:43.651Z,81.40
2018-01-02T22:29:11.274Z,82.70
2018-01-02T22:31:38.894Z,81.40
2018-01-02T22:34:06.570Z,81.40
2018-01-02T22:36:34.209Z,82.00
2018-01-02T22:39:01.835Z,85.00
2018-01-02T22:41:29.639Z,83.50
2018-01-02T22:43:57.273Z,83.50
2018-01-02T22:46:26.657Z,83.70
2018-01-02T22:48:54.323Z,86.40
2018-01-02T22:51:21.944Z,84.50
2018-01-02T22:53:50.996Z,84.10
2018-01-02T22:56:18.710Z,84.20
2018-01-02T22:58:46.331Z,83.10
2018-01-02T23:01:13.961Z,81.20
2018-01-02T23:03:41.635Z,78.70
2018-01-02T23:06:09.256Z,76.40
2018-01-02T23:08:36.882Z,75.70
2018-01-02T23:11:04.564Z,75.90
2018-01-02T23:13:32.188Z,80.30
2018-01-02T23:15:59.809Z,80.70
2018-01-02T23:18:27.484Z,80.70
2018-01-02T23:20:55.118Z,82.30
2018-01-02T23:23:22.739Z,82.70
2018-01-02T23:25:50.443Z,82.20
2018-01-02T23:28:18.081Z,83.40
2018-01-02T23:30:45.699Z,83.70
2018-01-02T23:33:13.386Z,83.90
2018-01-02T23:38:08.626Z,85.50
2018-01-02T23:40:36.327Z,86.10
2018-01-02T23:43:04.911Z,86.50
2018-01-02T23:45:32.544Z,86.50
2018-01-02T23:48:00.214Z,86.10
2018-01-02T23:50:27.838Z,84.50
2018-01-02T23:55:36.963Z,83.50
2018-01-02T23:58:04.581Z,84.30
